Main page
METAR-TAF:

METAR-TAF

Airports :

Bahrain International Airport

Bahrain, Bahrain

latitude: 26-16N, longitude: 050-39E, elevation: 2 m

Current weather observation

The report was made 23 minutes ago, at 00:30 UTC
Wind 7 kt from the East/Southeast
Temperature 20°C
Humidity 83%
Pressure 1016 hPa
Visibility 10 km or more
no clouds below 1500 m and no cumulonimbus

METAR: OBBI 160030Z 12007KT CAVOK 20/17 Q1016 NOSIG

Time: 03:53 (00:53 UTC)

Forecast

The report was made 1 hour and 53 minutes ago, at 23:00 UTC
Forecast valid from 16 at 00 UTC to 17 at 06 UTC
Wind 12 kt from the South/Southeast
Visibility: 8000 m
Becoming
from 16 at 18 UTC to 16 at 20 UTC
Wind 12 kt from the South/Southeast with gusts up to 22 kt

TAF: OBBI 152300Z 1600/1706 15012KT 8000 NSC BECMG 1618/1620 16012G22KT

Weather observations and forecasts of more than 4000 airports (METAR and TAF reports).

The available stations are represented by yellow and red dots on the map.

Hover mouse over dot to see the name of the station.

Then click to see weather observations and forecasts.

To change the map : click on the green buttons with a black cross to zoom in, on the green button with a dash to zoom out, or on the green arrows for adjacent maps.


METAR-TAF: